createdAt,value
2023-04-30T00:01:45.634Z,102225.25
2023-04-30T00:04:13.365Z,102217.16
2023-04-30T00:06:41.059Z,102226.09
2023-04-30T00:09:08.799Z,102238.22
2023-04-30T00:11:37.796Z,102236.41
2023-04-30T00:14:05.543Z,102229.56
2023-04-30T00:16:33.260Z,102250.84
2023-04-30T00:19:01.020Z,102246.19
2023-04-30T00:21:28.820Z,102241.38
2023-04-30T00:23:56.451Z,102250.19
2023-04-30T00:26:24.101Z,102240.44
2023-04-30T00:28:53.307Z,102266.59
2023-04-30T00:31:20.946Z,102263.50
2023-04-30T00:33:48.611Z,102246.75
2023-04-30T00:36:16.266Z,102260.69
2023-04-30T00:38:43.937Z,102275.50
2023-04-30T00:41:11.673Z,102263.78
2023-04-30T00:43:39.279Z,102264.66
2023-04-30T00:46:08.405Z,102260.38
2023-04-30T00:48:36.804Z,102267.91
2023-04-30T00:51:05.582Z,102254.72
2023-04-30T00:53:33.310Z,102264.97
2023-04-30T00:56:01.116Z,102266.28
2023-04-30T00:58:29.040Z,102256.81
2023-04-30T01:00:56.749Z,102256.78
2023-04-30T01:03:26.143Z,102281.94
2023-04-30T01:05:54.559Z,102278.66
2023-04-30T01:08:22.690Z,102281.41
2023-04-30T01:10:57.318Z,102285.53
2023-04-30T01:13:32.993Z,102275.00
2023-04-30T01:16:10.341Z,102281.06
2023-04-30T01:18:45.242Z,102279.50
2023-04-30T01:21:14.177Z,102260.72
2023-04-30T01:24:07.630Z,102283.06
2023-04-30T01:26:49.813Z,102286.53
2023-04-30T01:29:20.998Z,102279.00
2023-04-30T01:31:48.795Z,102261.25
2023-04-30T01:34:16.566Z,102281.41
2023-04-30T01:36:55.897Z,102259.63
2023-04-30T01:39:38.007Z,102293.09
2023-04-30T01:42:12.120Z,102294.53
2023-04-30T01:44:55.724Z,102295.31
2023-04-30T01:47:33.442Z,102296.22
2023-04-30T01:50:11.530Z,102301.00
2023-04-30T01:52:43.133Z,102304.84
2023-04-30T01:55:15.775Z,102300.19
2023-04-30T01:57:51.099Z,102317.47
2023-04-30T02:00:20.433Z,102296.97
2023-04-30T02:02:48.206Z,102301.25
2023-04-30T02:05:15.916Z,102286.19
2023-04-30T02:07:45.949Z,102314.97
2023-04-30T02:10:13.889Z,102302.44
2023-04-30T02:12:42.202Z,102308.56
2023-04-30T02:15:10.677Z,102311.59
2023-04-30T02:17:39.787Z,102300.59
2023-04-30T02:20:08.715Z,102320.38
2023-04-30T02:22:36.404Z,102321.00
2023-04-30T02:25:04.352Z,102314.72
2023-04-30T02:27:33.599Z,102322.63
2023-04-30T02:30:01.909Z,102308.34
2023-04-30T02:32:29.709Z,102317.00
2023-04-30T02:34:58.833Z,102312.91
2023-04-30T02:37:26.588Z,102319.38
2023-04-30T02:39:54.759Z,102268.09
2023-04-30T02:42:22.785Z,102312.97
2023-04-30T02:44:50.394Z,102311.22
2023-04-30T02:47:18.018Z,102325.47
2023-04-30T02:49:45.706Z,102328.13
2023-04-30T02:52:14.755Z,102316.81
2023-04-30T02:54:42.844Z,102284.63
2023-04-30T02:57:10.635Z,102315.00
2023-04-30T02:59:38.759Z,102316.25
2023-04-30T03:02:06.476Z,102313.16
2023-04-30T03:04:34.108Z,102316.50
2023-04-30T03:07:01.921Z,102305.78
2023-04-30T03:09:31.575Z,102313.16
2023-04-30T03:11:59.222Z,102310.72
2023-04-30T03:14:26.824Z,102301.50
2023-04-30T03:16:54.437Z,102314.09
2023-04-30T03:19:25.105Z,102327.09
2023-04-30T03:21:52.859Z,102303.75
2023-04-30T03:24:20.604Z,102327.94
2023-04-30T03:26:49.605Z,102335.81
2023-04-30T03:29:17.322Z,102338.63
2023-04-30T03:31:45.084Z,102328.09
2023-04-30T03:34:12.797Z,102312.47
2023-04-30T03:36:40.538Z,102322.81
2023-04-30T03:39:09.839Z,102335.59
2023-04-30T03:41:37.518Z,102311.84
2023-04-30T03:44:06.962Z,102332.59
2023-04-30T03:46:34.701Z,102330.16
2023-04-30T03:49:02.583Z,102340.88
2023-04-30T03:51:30.245Z,102323.47
2023-04-30T03:53:57.866Z,102338.91
2023-04-30T03:56:26.840Z,102339.72
2023-04-30T03:58:54.482Z,102329.34
2023-04-30T04:01:23.521Z,102334.91
2023-04-30T04:03:51.336Z,102352.59
2023-04-30T04:06:19.043Z,102347.75
2023-04-30T04:08:46.727Z,102346.91
2023-04-30T04:11:14.512Z,102332.88
2023-04-30T04:13:42.149Z,102336.75
2023-04-30T04:16:09.815Z,102330.34
2023-04-30T04:18:38.841Z,102335.25
2023-04-30T04:21:06.733Z,102356.84
2023-04-30T04:23:34.357Z,102357.91
2023-04-30T04:26:01.998Z,102337.31
2023-04-30T04:28:30.029Z,102344.16
2023-04-30T04:30:58.037Z,102338.56
2023-04-30T04:33:25.857Z,102337.81
2023-04-30T04:35:54.835Z,102358.63
2023-04-30T04:38:22.868Z,102347.75
2023-04-30T04:40:54.307Z,102353.91
2023-04-30T04:43:22.274Z,102347.38
2023-04-30T04:45:50.038Z,102359.16
2023-04-30T04:48:17.770Z,102357.97
2023-04-30T04:50:45.414Z,102349.66
2023-04-30T04:53:14.454Z,102370.91
2023-04-30T04:55:42.101Z,102343.63
2023-04-30T04:58:09.857Z,102356.38
2023-04-30T05:00:37.534Z,102357.00
2023-04-30T05:03:05.414Z,102351.00
2023-04-30T05:05:33.159Z,102330.22
2023-04-30T05:08:00.800Z,102335.78
2023-04-30T05:10:29.801Z,102336.44
2023-04-30T05:12:57.397Z,102329.06
2023-04-30T05:15:25.163Z,102329.13
2023-04-30T05:17:52.826Z,102333.91
2023-04-30T05:20:20.569Z,102339.03
2023-04-30T05:22:48.209Z,102335.97
2023-04-30T05:25:15.840Z,102336.59
2023-04-30T05:27:44.890Z,102344.25
2023-04-30T05:30:15.385Z,102342.97
2023-04-30T05:32:43.217Z,102329.66
2023-04-30T05:35:11.126Z,102339.44
2023-04-30T05:37:38.926Z,102333.38
2023-04-30T05:40:07.888Z,102335.75
2023-04-30T05:42:35.664Z,102337.06
2023-04-30T05:45:05.261Z,102328.00
2023-04-30T05:47:32.898Z,102326.38
2023-04-30T05:50:00.695Z,102323.06
2023-04-30T05:52:28.341Z,102321.16
2023-04-30T05:54:56.004Z,102322.00
2023-04-30T05:57:23.678Z,102320.84
2023-04-30T05:59:51.302Z,102315.94
2023-04-30T06:02:20.366Z,102322.63
2023-04-30T06:04:48.971Z,102320.81
2023-04-30T06:07:16.652Z,102320.09
2023-04-30T06:09:44.259Z,102325.50
2023-04-30T06:12:11.958Z,102325.03
2023-04-30T06:14:39.756Z,102331.03
2023-04-30T06:17:07.369Z,102327.84
2023-04-30T06:19:36.367Z,102322.72
2023-04-30T06:22:04.048Z,102328.13
2023-04-30T06:24:31.701Z,102336.03
2023-04-30T06:26:59.383Z,102327.16
2023-04-30T06:29:27.007Z,102339.25
2023-04-30T06:31:55.241Z,102333.19
2023-04-30T06:34:23.083Z,102320.16
2023-04-30T06:36:52.046Z,102344.06
2023-04-30T06:39:19.679Z,102329.94
2023-04-30T06:41:48.340Z,102347.16
2023-04-30T06:44:17.112Z,102335.78
2023-04-30T06:46:44.820Z,102334.72
2023-04-30T06:49:12.474Z,102348.81
2023-04-30T06:51:40.151Z,102340.03
2023-04-30T06:54:09.185Z,102335.75
2023-04-30T06:56:36.886Z,102335.88
2023-04-30T06:59:04.986Z,102347.81
2023-04-30T07:01:32.705Z,102335.22
2023-04-30T07:04:01.158Z,102352.41
2023-04-30T07:06:28.982Z,102356.50
2023-04-30T07:08:57.476Z,102349.75
2023-04-30T07:11:26.747Z,102353.81
2023-04-30T07:13:54.551Z,102363.34
2023-04-30T07:16:22.486Z,102362.38
2023-04-30T07:18:50.152Z,102365.81
2023-04-30T07:21:17.776Z,102366.22
2023-04-30T07:23:45.607Z,102371.34
2023-04-30T07:26:13.449Z,102382.56
2023-04-30T07:28:42.496Z,102390.94
2023-04-30T07:31:10.536Z,102401.84
2023-04-30T07:33:38.380Z,102424.13
2023-04-30T07:36:06.894Z,102430.03
2023-04-30T07:38:34.547Z,102422.06
2023-04-30T07:41:03.509Z,102409.16
2023-04-30T07:43:31.973Z,102416.25
2023-04-30T07:46:01.071Z,102435.56
2023-04-30T07:48:28.824Z,102432.72
2023-04-30T07:50:56.740Z,102434.59
2023-04-30T07:53:24.512Z,102414.09
2023-04-30T07:55:52.169Z,102408.56
2023-04-30T07:58:19.888Z,102402.03
2023-04-30T08:00:47.874Z,102415.16
2023-04-30T08:03:17.123Z,102412.38
2023-04-30T08:05:44.863Z,102422.53
2023-04-30T08:08:12.741Z,102416.72
2023-04-30T08:10:41.852Z,102425.09
2023-04-30T08:13:09.466Z,102422.50
2023-04-30T08:15:37.736Z,102418.47
2023-04-30T08:18:05.948Z,102420.06
2023-04-30T08:20:36.573Z,102419.16
2023-04-30T08:23:05.927Z,102424.34
2023-04-30T08:25:34.442Z,102443.16
2023-04-30T08:28:02.118Z,102436.91
2023-04-30T08:30:29.919Z,102420.38
2023-04-30T08:32:57.869Z,102433.78
2023-04-30T08:35:25.836Z,102428.06
2023-04-30T08:37:55.382Z,102434.56
2023-04-30T08:40:33.788Z,102425.94
2023-04-30T08:43:11.627Z,102422.22
2023-04-30T08:45:39.266Z,102419.63
2023-04-30T08:48:12.095Z,102417.66
2023-04-30T08:50:39.847Z,102425.28
2023-04-30T08:53:09.005Z,102435.81
2023-04-30T08:55:37.572Z,102415.19
2023-04-30T08:58:05.765Z,102407.59
2023-04-30T09:00:34.069Z,102424.97
2023-04-30T09:03:02.514Z,102424.22
2023-04-30T09:05:31.057Z,102419.38
2023-04-30T09:08:03.739Z,102423.28
2023-04-30T09:10:35.035Z,102424.06
2023-04-30T09:13:04.504Z,102405.16
2023-04-30T09:15:33.176Z,102410.72
2023-04-30T09:18:11.630Z,102417.88
2023-04-30T09:20:54.406Z,102431.53
2023-04-30T09:23:22.045Z,102464.72
2023-04-30T09:25:51.070Z,102445.03
2023-04-30T09:28:23.604Z,102442.31
2023-04-30T09:30:52.515Z,102440.91
2023-04-30T09:33:20.371Z,102459.19
2023-04-30T09:35:48.011Z,102457.06
2023-04-30T09:38:31.626Z,102461.50
2023-04-30T09:41:01.977Z,102460.97
2023-04-30T09:43:30.841Z,102465.97
2023-04-30T09:45:59.885Z,102461.19
2023-04-30T09:48:29.136Z,102462.53
2023-04-30T09:50:56.959Z,102448.41
2023-04-30T09:53:24.600Z,102449.50
2023-04-30T09:55:52.795Z,102433.59
2023-04-30T09:58:21.750Z,102429.22
2023-04-30T10:00:52.797Z,102444.44
2023-04-30T10:03:23.828Z,102451.59
2023-04-30T10:05:53.163Z,102441.38
2023-04-30T10:08:29.384Z,102450.34
2023-04-30T10:11:01.108Z,102435.38
2023-04-30T10:13:32.725Z,102437.09
2023-04-30T10:16:05.633Z,102437.81
2023-04-30T10:18:35.880Z,102456.59
2023-04-30T10:21:10.182Z,102463.09
2023-04-30T10:23:39.585Z,102441.50
2023-04-30T10:26:08.169Z,102444.97
2023-04-30T10:28:37.270Z,102432.53
2023-04-30T10:31:06.039Z,102411.41
2023-04-30T10:33:41.257Z,102419.81
2023-04-30T10:36:15.668Z,102425.13
2023-04-30T10:38:43.467Z,102436.38
2023-04-30T10:41:11.155Z,102433.69
2023-04-30T10:43:40.250Z,102432.25
2023-04-30T10:46:09.744Z,102431.63
2023-04-30T10:48:37.489Z,102428.28
2023-04-30T10:51:05.851Z,102414.38
2023-04-30T10:53:33.949Z,102415.91
2023-04-30T10:56:06.577Z,102387.34
2023-04-30T10:58:36.197Z,102403.63
2023-04-30T11:01:08.445Z,102410.59
2023-04-30T11:03:37.292Z,102412.50
2023-04-30T11:06:13.382Z,102406.75
2023-04-30T11:08:44.234Z,102397.97
2023-04-30T11:11:14.997Z,102399.66
2023-04-30T11:13:45.350Z,102407.28
2023-04-30T11:16:14.608Z,102412.38
2023-04-30T11:18:43.543Z,102401.31
2023-04-30T11:21:11.736Z,102373.47
2023-04-30T11:23:43.182Z,102383.22
2023-04-30T11:26:11.751Z,102398.97
2023-04-30T11:28:39.652Z,102387.38
2023-04-30T11:31:07.352Z,102377.75
2023-04-30T11:33:36.498Z,102382.44
2023-04-30T11:36:04.390Z,102383.47
2023-04-30T11:38:35.805Z,102392.22
2023-04-30T11:41:04.277Z,102385.03
2023-04-30T11:43:32.840Z,102391.72
2023-04-30T11:46:02.736Z,102364.44
2023-04-30T11:48:32.542Z,102359.91
2023-04-30T11:51:10.650Z,102367.84
2023-04-30T11:53:38.274Z,102373.91
2023-04-30T11:56:06.452Z,102356.03
2023-04-30T11:58:39.171Z,102375.47
2023-04-30T12:01:08.033Z,102363.16
2023-04-30T12:03:42.036Z,102358.78
2023-04-30T12:06:13.066Z,102369.44
2023-04-30T12:08:42.719Z,102346.00
2023-04-30T12:11:21.661Z,102365.84
2023-04-30T12:13:53.968Z,102371.13
2023-04-30T12:16:21.712Z,102365.31
2023-04-30T12:18:50.747Z,102343.84
2023-04-30T12:21:22.682Z,102340.22
2023-04-30T12:23:50.616Z,102341.78
2023-04-30T12:26:18.813Z,102350.56
2023-04-30T12:28:48.485Z,102347.53
2023-04-30T12:31:18.146Z,102344.41
2023-04-30T12:33:45.860Z,102351.94
2023-04-30T12:36:14.365Z,102341.31
2023-04-30T12:38:44.851Z,102322.75
2023-04-30T12:41:13.678Z,102343.31
2023-04-30T12:43:41.395Z,102331.00
2023-04-30T12:46:09.144Z,102333.34
2023-04-30T12:48:45.442Z,102315.22
2023-04-30T12:51:13.238Z,102318.88
2023-04-30T12:53:47.299Z,102332.63
2023-04-30T12:56:16.729Z,102316.59
2023-04-30T12:58:47.421Z,102319.88
2023-04-30T13:01:18.504Z,102300.16
2023-04-30T13:03:46.494Z,102286.59
2023-04-30T13:06:14.329Z,102291.53
2023-04-30T13:08:57.047Z,102288.03
2023-04-30T13:11:27.725Z,102304.88
2023-04-30T13:13:56.528Z,102293.09
2023-04-30T13:16:25.887Z,102298.63
2023-04-30T13:18:53.996Z,102295.16
2023-04-30T13:21:21.701Z,102291.75
2023-04-30T13:23:53.739Z,102280.63
2023-04-30T13:26:23.327Z,102248.09
2023-04-30T13:28:52.686Z,102267.47
2023-04-30T13:31:20.513Z,102265.19
2023-04-30T13:33:48.240Z,102281.72
2023-04-30T13:36:16.271Z,102275.22
2023-04-30T13:38:44.112Z,102257.63
2023-04-30T13:41:11.742Z,102277.47
2023-04-30T13:43:42.573Z,102218.06
2023-04-30T13:46:12.083Z,102250.00
2023-04-30T13:48:39.830Z,102247.22
2023-04-30T13:51:07.831Z,102247.69
2023-04-30T13:53:35.701Z,102248.00
2023-04-30T13:56:03.636Z,102238.63
2023-04-30T13:58:31.323Z,102224.56
2023-04-30T14:00:59.359Z,102235.81
2023-04-30T14:03:28.524Z,102233.28
2023-04-30T14:05:56.473Z,102227.78
2023-04-30T14:08:24.141Z,102216.16
2023-04-30T14:10:51.777Z,102234.41
2023-04-30T14:13:19.656Z,102215.69
2023-04-30T14:15:47.874Z,102210.47
2023-04-30T14:18:15.473Z,102212.72
2023-04-30T14:20:44.476Z,102218.31
2023-04-30T14:23:12.638Z,102205.50
2023-04-30T14:25:40.582Z,102192.56
2023-04-30T14:28:08.257Z,102205.22
2023-04-30T14:30:35.881Z,102190.09
2023-04-30T14:33:03.670Z,102182.41
2023-04-30T14:35:31.361Z,102187.47
2023-04-30T14:38:00.390Z,102187.25
2023-04-30T14:40:28.046Z,102190.59
2023-04-30T14:42:55.717Z,102198.97
2023-04-30T14:45:23.406Z,102198.16
2023-04-30T14:47:51.057Z,102187.97
2023-04-30T14:50:18.953Z,102176.09
2023-04-30T14:52:47.126Z,102198.41
2023-04-30T14:55:16.274Z,102194.06
2023-04-30T14:57:43.900Z,102183.25
2023-04-30T15:00:13.087Z,102188.72
2023-04-30T15:02:40.820Z,102180.44
2023-04-30T15:05:09.227Z,102185.69
2023-04-30T15:07:37.651Z,102183.88
2023-04-30T15:10:06.697Z,102167.44
2023-04-30T15:12:35.904Z,102182.84
2023-04-30T15:15:04.451Z,102187.00
2023-04-30T15:17:34.757Z,102166.22
2023-04-30T15:20:03.862Z,102166.97
2023-04-30T15:22:31.533Z,102165.13
2023-04-30T15:24:59.161Z,102185.19
2023-04-30T15:27:28.920Z,102184.16
2023-04-30T15:29:58.537Z,102183.88
2023-04-30T15:32:26.409Z,102165.88
2023-04-30T15:34:55.150Z,102173.13
2023-04-30T15:37:22.752Z,102162.22
2023-04-30T15:39:50.494Z,102172.91
2023-04-30T15:42:18.170Z,102179.31
2023-04-30T15:44:45.778Z,102173.91
2023-04-30T15:47:14.851Z,102175.97
2023-04-30T15:49:43.562Z,102167.22
2023-04-30T15:52:11.238Z,102148.91
2023-04-30T15:54:38.914Z,102158.53
2023-04-30T15:57:06.628Z,102154.28
2023-04-30T15:59:34.300Z,102149.38
2023-04-30T16:02:02.553Z,102156.00
2023-04-30T16:04:31.535Z,102171.50
2023-04-30T16:06:59.226Z,102142.72
2023-04-30T16:09:27.324Z,102162.72
2023-04-30T16:11:56.687Z,102154.16
2023-04-30T16:14:24.376Z,102139.91
2023-04-30T16:16:52.140Z,102161.34
2023-04-30T16:19:19.790Z,102157.78
2023-04-30T16:21:48.882Z,102156.41
2023-04-30T16:24:16.621Z,102148.63
2023-04-30T16:26:44.258Z,102157.44
2023-04-30T16:29:11.906Z,102143.47
2023-04-30T16:31:39.594Z,102142.09
2023-04-30T16:34:11.259Z,102145.31
2023-04-30T16:36:39.055Z,102114.91
2023-04-30T16:39:08.032Z,102137.53
2023-04-30T16:41:35.720Z,102131.16
2023-04-30T16:44:03.522Z,102129.38
2023-04-30T16:46:31.912Z,102117.84
2023-04-30T16:49:00.603Z,102109.56
2023-04-30T16:51:28.352Z,102115.78
2023-04-30T16:53:56.013Z,102119.81
2023-04-30T16:56:25.178Z,102114.78
2023-04-30T16:58:53.064Z,102110.84
2023-04-30T17:01:20.904Z,102094.28
2023-04-30T17:03:48.839Z,102094.47
2023-04-30T17:06:16.674Z,102098.09
2023-04-30T17:08:44.350Z,102096.19
2023-04-30T17:11:12.151Z,102096.28
2023-04-30T17:13:41.140Z,102092.06
2023-04-30T17:16:08.982Z,102069.94
2023-04-30T17:18:36.667Z,102085.16
2023-04-30T17:21:04.714Z,102081.88
2023-04-30T17:23:32.851Z,102085.94
2023-04-30T17:26:01.237Z,102078.06
2023-04-30T17:28:28.889Z,102087.28
2023-04-30T17:30:58.453Z,102084.91
2023-04-30T17:33:26.686Z,102078.16
2023-04-30T17:35:55.013Z,102090.31
2023-04-30T17:38:22.749Z,102079.25
2023-04-30T17:40:50.373Z,102089.22
2023-04-30T17:43:18.025Z,102093.88
2023-04-30T17:45:45.666Z,102083.72
2023-04-30T17:48:14.715Z,102091.59
2023-04-30T17:50:42.605Z,102072.88
2023-04-30T17:53:10.379Z,102088.88
2023-04-30T17:55:38.023Z,102089.16
2023-04-30T17:58:06.841Z,102077.75
2023-04-30T18:00:34.908Z,102087.94
2023-04-30T18:03:02.636Z,102083.88
2023-04-30T18:05:34.110Z,102090.41
2023-04-30T18:08:03.003Z,102091.84
2023-04-30T18:10:30.676Z,102090.75
2023-04-30T18:13:00.060Z,102085.41
2023-04-30T18:15:28.061Z,102085.63
2023-04-30T18:17:56.074Z,102077.09
2023-04-30T18:20:23.780Z,102084.41
2023-04-30T18:22:52.885Z,102095.63
2023-04-30T18:25:20.745Z,102096.72
2023-04-30T18:27:48.437Z,102104.53
2023-04-30T18:30:16.093Z,102074.81
2023-04-30T18:32:44.204Z,102095.41
2023-04-30T18:35:11.928Z,102103.25
2023-04-30T18:37:39.576Z,102103.78
2023-04-30T18:40:10.016Z,102109.84
2023-04-30T18:42:38.569Z,102108.28
2023-04-30T18:45:09.001Z,102103.31
2023-04-30T18:47:36.771Z,102096.19
2023-04-30T18:50:05.433Z,102098.22
2023-04-30T18:52:33.131Z,102114.53
2023-04-30T18:55:00.918Z,102096.50
2023-04-30T18:57:29.924Z,102105.53
2023-04-30T18:59:58.119Z,102117.91
2023-04-30T19:02:25.967Z,102124.91
2023-04-30T19:04:54.815Z,102127.34
2023-04-30T19:07:22.493Z,102131.38
2023-04-30T19:09:51.814Z,102124.06
2023-04-30T19:12:19.460Z,102144.41
2023-04-30T19:14:48.515Z,102131.50
2023-04-30T19:17:17.879Z,102128.41
2023-04-30T19:19:47.390Z,102142.19
2023-04-30T19:22:15.109Z,102126.78
2023-04-30T19:24:42.866Z,102142.09
2023-04-30T19:27:10.932Z,102147.22
2023-04-30T19:29:39.429Z,102131.06
2023-04-30T19:32:09.822Z,102134.56
2023-04-30T19:34:37.617Z,102133.75
2023-04-30T19:37:05.254Z,102136.28
2023-04-30T19:39:34.005Z,102131.84
2023-04-30T19:42:01.675Z,102139.50
2023-04-30T19:44:29.841Z,102142.06
2023-04-30T19:46:58.123Z,102137.72
2023-04-30T19:49:27.297Z,102144.63
2023-04-30T19:51:55.497Z,102132.69
2023-04-30T19:54:23.082Z,102145.75
2023-04-30T19:56:52.651Z,102145.78
2023-04-30T19:59:20.422Z,102141.50
2023-04-30T20:01:48.415Z,102132.84
2023-04-30T20:04:16.124Z,102134.53
2023-04-30T20:06:45.376Z,102117.09
2023-04-30T20:09:13.138Z,102128.50
2023-04-30T20:11:40.808Z,102134.81
2023-04-30T20:14:08.483Z,102119.94
2023-04-30T20:16:36.172Z,102141.44
2023-04-30T20:19:04.242Z,102138.50
2023-04-30T20:21:32.057Z,102130.03
2023-04-30T20:24:01.165Z,102129.22
2023-04-30T20:26:29.210Z,102129.97
2023-04-30T20:28:57.110Z,102120.41
2023-04-30T20:31:24.869Z,102127.41
2023-04-30T20:33:52.541Z,102125.72
2023-04-30T20:36:20.548Z,102108.00
2023-04-30T20:38:48.645Z,102121.84
2023-04-30T20:41:17.670Z,102117.63
2023-04-30T20:43:45.314Z,102128.84
2023-04-30T20:46:13.869Z,102126.25
2023-04-30T20:48:41.670Z,102125.34
2023-04-30T20:51:10.272Z,102120.94
2023-04-30T20:53:37.952Z,102112.19
2023-04-30T20:56:06.757Z,102121.75
2023-04-30T20:58:35.749Z,102117.28
2023-04-30T21:01:03.576Z,102112.22
2023-04-30T21:03:31.318Z,102111.38
2023-04-30T21:05:58.942Z,102100.06
2023-04-30T21:08:26.601Z,102102.47
2023-04-30T21:10:54.226Z,102103.44
2023-04-30T21:13:21.835Z,102106.06
2023-04-30T21:15:53.507Z,102105.06
2023-04-30T21:18:21.181Z,102101.50
2023-04-30T21:20:49.143Z,102112.81
2023-04-30T21:23:16.823Z,102105.06
2023-04-30T21:25:44.432Z,102094.63
2023-04-30T21:28:12.053Z,102089.22
2023-04-30T21:30:40.061Z,102096.06
2023-04-30T21:33:09.121Z,102101.81
2023-04-30T21:35:36.757Z,102104.25
2023-04-30T21:38:04.419Z,102104.59
2023-04-30T21:40:33.635Z,102090.72
2023-04-30T21:43:01.738Z,102099.41
2023-04-30T21:45:29.387Z,102091.78
2023-04-30T21:47:57.060Z,102092.41
2023-04-30T21:50:26.378Z,102091.47
2023-04-30T21:52:54.126Z,102096.84
2023-04-30T21:55:22.006Z,102083.69
2023-04-30T21:57:51.547Z,102079.28
2023-04-30T22:00:19.533Z,102056.94
2023-04-30T22:02:48.404Z,102083.00
2023-04-30T22:05:16.604Z,102072.78
2023-04-30T22:07:46.745Z,102069.94
2023-04-30T22:10:14.806Z,102060.19
2023-04-30T22:12:44.710Z,102072.38
2023-04-30T22:15:14.887Z,102068.97
2023-04-30T22:17:42.623Z,102063.63
2023-04-30T22:20:10.934Z,102066.09
2023-04-30T22:22:38.629Z,102050.91
2023-04-30T22:25:09.903Z,102057.91
2023-04-30T22:27:37.682Z,102052.16
2023-04-30T22:30:06.165Z,102058.34
2023-04-30T22:32:34.382Z,102054.00
2023-04-30T22:35:03.128Z,102052.06
2023-04-30T22:37:31.177Z,102053.84
2023-04-30T22:39:59.031Z,102031.81
2023-04-30T22:42:28.250Z,102050.19
2023-04-30T22:44:56.025Z,102045.09
2023-04-30T22:47:23.863Z,102018.16
2023-04-30T22:49:51.587Z,102037.94
2023-04-30T22:52:19.317Z,102035.59
2023-04-30T22:54:47.276Z,102015.22
2023-04-30T22:57:14.952Z,102024.63
2023-04-30T22:59:43.944Z,102022.22
2023-04-30T23:02:11.652Z,102008.72
2023-04-30T23:04:39.336Z,102019.84
2023-04-30T23:07:07.040Z,102019.34
2023-04-30T23:09:34.782Z,102022.22
2023-04-30T23:12:02.522Z,101994.03
2023-04-30T23:14:30.561Z,102003.25
2023-04-30T23:17:00.381Z,102011.28
2023-04-30T23:19:28.210Z,102014.13
2023-04-30T23:21:56.930Z,102010.47
2023-04-30T23:24:24.604Z,102002.31
2023-04-30T23:26:52.648Z,101998.19
2023-04-30T23:29:21.221Z,102002.50
2023-04-30T23:31:48.929Z,102001.44
2023-04-30T23:34:17.976Z,102000.78
2023-04-30T23:36:45.628Z,101998.19
2023-04-30T23:39:13.299Z,101990.91
2023-04-30T23:41:40.960Z,101979.66
2023-04-30T23:44:09.113Z,101988.00
2023-04-30T23:46:36.759Z,101977.91
2023-04-30T23:49:04.407Z,101990.19
2023-04-30T23:51:34.144Z,101981.97
2023-04-30T23:54:01.786Z,101985.06
2023-04-30T23:56:29.600Z,101977.09
2023-04-30T23:58:57.219Z,101984.69
